sensor_id;sensor_type;location;lat;lon;timestamp;pressure;altitude;pressure_sealevel;temperature;humidity
84143;BME280;74260;50.772;7.730;2023-12-29T00:00:10;98434.91;;;8.61;83.84
84143;BME280;74260;50.772;7.730;2023-12-29T00:00:41;98440.06;;;8.61;83.63
84143;BME280;74260;50.772;7.730;2023-12-29T00:01:20;98435.22;;;8.64;83.83
84143;BME280;74260;50.772;7.730;2023-12-29T00:01:51;98433.50;;;8.65;83.91
84143;BME280;74260;50.772;7.730;2023-12-29T00:02:23;98432.91;;;8.77;83.23
84143;BME280;74260;50.772;7.730;2023-12-29T00:02:55;98433.28;;;8.72;83.68
84143;BME280;74260;50.772;7.730;2023-12-29T00:03:26;98436.88;;;8.74;83.16
84143;BME280;74260;50.772;7.730;2023-12-29T00:03:56;98437.13;;;8.77;83.24
84143;BME280;74260;50.772;7.730;2023-12-29T00:04:27;98432.66;;;8.74;83.23
84143;BME280;74260;50.772;7.730;2023-12-29T00:04:58;98440.47;;;8.76;83.42
84143;BME280;74260;50.772;7.730;2023-12-29T00:05:30;98434.19;;;8.72;83.59
84143;BME280;74260;50.772;7.730;2023-12-29T00:06:04;98430.81;;;8.73;83.31
84143;BME280;74260;50.772;7.730;2023-12-29T00:06:37;98427.50;;;8.74;83.30
84143;BME280;74260;50.772;7.730;2023-12-29T00:07:08;98430.81;;;8.73;83.33
84143;BME280;74260;50.772;7.730;2023-12-29T00:07:39;98423.78;;;8.71;83.29
84143;BME280;74260;50.772;7.730;2023-12-29T00:08:09;98428.41;;;8.75;83.31
84143;BME280;74260;50.772;7.730;2023-12-29T00:08:39;98430.81;;;8.73;83.67
84143;BME280;74260;50.772;7.730;2023-12-29T00:09:10;98427.50;;;8.74;83.59
84143;BME280;74260;50.772;7.730;2023-12-29T00:09:40;98431.59;;;8.72;83.90
84143;BME280;74260;50.772;7.730;2023-12-29T00:10:10;98431.47;;;8.71;84.05
84143;BME280;74260;50.772;7.730;2023-12-29T00:10:41;98427.25;;;8.71;84.02
84143;BME280;74260;50.772;7.730;2023-12-29T00:11:19;98436.25;;;8.76;83.27
84143;BME280;74260;50.772;7.730;2023-12-29T00:11:51;98428.28;;;8.83;82.86
84143;BME280;74260;50.772;7.730;2023-12-29T00:12:24;98429.28;;;8.85;83.02
84143;BME280;74260;50.772;7.730;2023-12-29T00:12:55;98432.16;;;8.88;82.53
84143;BME280;74260;50.772;7.730;2023-12-29T00:13:27;98436.13;;;8.85;83.11
84143;BME280;74260;50.772;7.730;2023-12-29T00:13:57;98432.00;;;8.77;83.18
84143;BME280;74260;50.772;7.730;2023-12-29T00:14:29;98427.13;;;8.80;83.03
84143;BME280;74260;50.772;7.730;2023-12-29T00:15:03;98438.94;;;8.78;83.26
84143;BME280;74260;50.772;7.730;2023-12-29T00:15:34;98439.06;;;8.79;83.14
84143;BME280;74260;50.772;7.730;2023-12-29T00:16:05;98429.56;;;8.78;83.47
84143;BME280;74260;50.772;7.730;2023-12-29T00:16:36;98434.19;;;8.92;82.82
84143;BME280;74260;50.772;7.730;2023-12-29T00:17:06;98426.47;;;8.82;82.86
84143;BME280;74260;50.772;7.730;2023-12-29T00:17:36;98432.66;;;8.84;83.07
84143;BME280;74260;50.772;7.730;2023-12-29T00:18:07;98436.25;;;8.86;83.15
84143;BME280;74260;50.772;7.730;2023-12-29T00:18:38;98442.94;;;8.84;83.08
84143;BME280;74260;50.772;7.730;2023-12-29T00:19:09;98441.88;;;8.82;83.26
84143;BME280;74260;50.772;7.730;2023-12-29T00:19:40;98431.88;;;8.85;83.22
84143;BME280;74260;50.772;7.730;2023-12-29T00:20:11;98441.75;;;8.91;82.98
84143;BME280;74260;50.772;7.730;2023-12-29T00:20:42;98440.09;;;8.91;82.84
84143;BME280;74260;50.772;7.730;2023-12-29T00:21:13;98442.44;;;8.88;82.98
84143;BME280;74260;50.772;7.730;2023-12-29T00:21:43;98440.88;;;8.90;82.61
84143;BME280;74260;50.772;7.730;2023-12-29T00:22:13;98441.13;;;8.83;83.28
84143;BME280;74260;50.772;7.730;2023-12-29T00:22:44;98445.13;;;8.80;83.25
84143;BME280;74260;50.772;7.730;2023-12-29T00:23:15;98446.00;;;8.80;83.37
84143;BME280;74260;50.772;7.730;2023-12-29T00:23:45;98448.97;;;8.85;83.24
84143;BME280;74260;50.772;7.730;2023-12-29T00:24:16;98445.25;;;8.81;83.49
84143;BME280;74260;50.772;7.730;2023-12-29T00:24:47;98450.38;;;8.81;83.65
84143;BME280;74260;50.772;7.730;2023-12-29T00:25:18;98446.28;;;8.83;83.38
84143;BME280;74260;50.772;7.730;2023-12-29T00:25:48;98450.88;;;8.77;83.58
84143;BME280;74260;50.772;7.730;2023-12-29T00:26:19;98446.53;;;8.76;83.93
84143;BME280;74260;50.772;7.730;2023-12-29T00:26:49;98446.41;;;8.75;83.85
84143;BME280;74260;50.772;7.730;2023-12-29T00:27:19;98445.88;;;8.79;83.42
84143;BME280;74260;50.772;7.730;2023-12-29T00:27:50;98441.13;;;8.83;83.43
84143;BME280;74260;50.772;7.730;2023-12-29T00:28:20;98439.84;;;8.78;84.19
84143;BME280;74260;50.772;7.730;2023-12-29T00:28:53;98443.03;;;8.76;84.39
84143;BME280;74260;50.772;7.730;2023-12-29T00:29:24;98433.56;;;8.75;83.82
84143;BME280;74260;50.772;7.730;2023-12-29T00:29:54;98442.91;;;8.74;84.14
84143;BME280;74260;50.772;7.730;2023-12-29T00:30:24;98441.25;;;8.85;83.31
84143;BME280;74260;50.772;7.730;2023-12-29T00:30:55;98442.69;;;8.81;83.87
84143;BME280;74260;50.772;7.730;2023-12-29T00:31:25;98436.00;;;8.83;83.50
84143;BME280;74260;50.772;7.730;2023-12-29T00:31:57;98439.19;;;8.81;83.81
84143;BME280;74260;50.772;7.730;2023-12-29T00:32:27;98439.84;;;8.78;83.96
84143;BME280;74260;50.772;7.730;2023-12-29T00:32:58;98437.91;;;8.86;83.24
84143;BME280;74260;50.772;7.730;2023-12-29T00:33:29;98442.94;;;8.94;83.08
84143;BME280;74260;50.772;7.730;2023-12-29T00:34:00;98441.63;;;8.89;83.11
84143;BME280;74260;50.772;7.730;2023-12-29T00:34:30;98443.59;;;8.92;83.31
84143;BME280;74260;50.772;7.730;2023-12-29T00:35:01;98439.59;;;8.95;82.88
84143;BME280;74260;50.772;7.730;2023-12-29T00:35:32;98440.59;;;8.87;83.26
84143;BME280;74260;50.772;7.730;2023-12-29T00:36:02;98440.59;;;8.87;82.91
84143;BME280;74260;50.772;7.730;2023-12-29T00:36:33;98443.97;;;8.86;83.67
84143;BME280;74260;50.772;7.730;2023-12-29T00:37:04;98435.47;;;8.87;83.39
84143;BME280;74260;50.772;7.730;2023-12-29T00:37:36;98436.63;;;8.81;83.66
84143;BME280;74260;50.772;7.730;2023-12-29T00:38:06;98438.94;;;8.78;83.79
84143;BME280;74260;50.772;7.730;2023-12-29T00:38:37;98438.28;;;8.80;83.47
84143;BME280;74260;50.772;7.730;2023-12-29T00:39:08;98436.75;;;8.82;83.51
84143;BME280;74260;50.772;7.730;2023-12-29T00:39:38;98430.75;;;8.92;83.20
84143;BME280;74260;50.772;7.730;2023-12-29T00:40:11;98431.38;;;8.89;83.13
84143;BME280;74260;50.772;7.730;2023-12-29T00:40:45;98434.19;;;8.92;82.77
84143;BME280;74260;50.772;7.730;2023-12-29T00:41:16;98429.81;;;8.91;83.23
84143;BME280;74260;50.772;7.730;2023-12-29T00:41:47;98428.53;;;8.86;83.59
84143;BME280;74260;50.772;7.730;2023-12-29T00:42:17;98428.28;;;8.83;83.73
84143;BME280;74260;50.772;7.730;2023-12-29T00:42:48;98430.88;;;8.83;83.51
84143;BME280;74260;50.772;7.730;2023-12-29T00:43:20;98430.63;;;8.90;83.12
84143;BME280;74260;50.772;7.730;2023-12-29T00:43:50;98429.03;;;8.92;83.12
84143;BME280;74260;50.772;7.730;2023-12-29T00:44:23;98429.81;;;8.91;83.11
84143;BME280;74260;50.772;7.730;2023-12-29T00:44:53;98424.19;;;8.95;82.79
84143;BME280;74260;50.772;7.730;2023-12-29T00:45:24;98420.06;;;8.87;83.46
84143;BME280;74260;50.772;7.730;2023-12-29T00:45:55;98422.38;;;8.94;83.26
84143;BME280;74260;50.772;7.730;2023-12-29T00:46:26;98409.75;;;8.97;82.89
84143;BME280;74260;50.772;7.730;2023-12-29T00:47:02;98413.91;;;8.95;83.15
84143;BME280;74260;50.772;7.730;2023-12-29T00:47:33;98427.00;;;8.98;82.85
84143;BME280;74260;50.772;7.730;2023-12-29T00:48:04;98418.78;;;9.02;82.74
84143;BME280;74260;50.772;7.730;2023-12-29T00:48:36;98413.38;;;8.99;82.77
84143;BME280;74260;50.772;7.730;2023-12-29T00:49:06;98413.91;;;8.95;83.19
84143;BME280;74260;50.772;7.730;2023-12-29T00:49:38;98411.59;;;8.88;83.09
84143;BME280;74260;50.772;7.730;2023-12-29T00:50:10;98410.19;;;8.92;83.13
84143;BME280;74260;50.772;7.730;2023-12-29T00:50:40;98414.16;;;8.98;82.91
84143;BME280;74260;50.772;7.730;2023-12-29T00:51:12;98418.75;;;8.92;82.81
84143;BME280;74260;50.772;7.730;2023-12-29T00:51:43;98411.06;;;8.92;83.28
84143;BME280;74260;50.772;7.730;2023-12-29T00:52:14;98412.22;;;8.96;83.04
84143;BME280;74260;50.772;7.730;2023-12-29T00:52:44;98411.34;;;8.95;83.22
84143;BME280;74260;50.772;7.730;2023-12-29T00:53:14;98402.72;;;8.95;83.40
84143;BME280;74260;50.772;7.730;2023-12-29T00:53:46;98404.91;;;8.90;83.26
84143;BME280;74260;50.772;7.730;2023-12-29T00:54:16;98398.22;;;8.92;83.36
84143;BME280;74260;50.772;7.730;2023-12-29T00:54:47;98410.94;;;8.91;83.30
84143;BME280;74260;50.772;7.730;2023-12-29T00:55:18;98399.50;;;8.87;83.51
84143;BME280;74260;50.772;7.730;2023-12-29T00:55:49;98402.59;;;8.93;83.22
84143;BME280;74260;50.772;7.730;2023-12-29T00:56:20;98406.69;;;8.91;83.72
84143;BME280;74260;50.772;7.730;2023-12-29T00:56:51;98399.25;;;8.94;83.18
84143;BME280;74260;50.772;7.730;2023-12-29T00:57:21;98396.91;;;8.97;82.80
84143;BME280;74260;50.772;7.730;2023-12-29T00:57:52;98395.13;;;8.96;82.99
84143;BME280;74260;50.772;7.730;2023-12-29T00:58:22;98394.63;;;9.00;83.15
84143;BME280;74260;50.772;7.730;2023-12-29T00:58:53;98400.00;;;9.03;83.11
84143;BME280;74260;50.772;7.730;2023-12-29T00:59:23;98394.09;;;9.04;82.43
84143;BME280;74260;50.772;7.730;2023-12-29T00:59:54;98401.81;;;9.04;82.65
84143;BME280;74260;50.772;7.730;2023-12-29T01:00:24;98398.22;;;9.02;83.08
84143;BME280;74260;50.772;7.730;2023-12-29T01:00:55;98398.06;;;9.01;82.96
84143;BME280;74260;50.772;7.730;2023-12-29T01:01:25;98394.38;;;9.07;82.82
84143;BME280;74260;50.772;7.730;2023-12-29T01:01:55;98387.94;;;9.02;83.18
84143;BME280;74260;50.772;7.730;2023-12-29T01:02:26;98391.41;;;9.03;83.00
84143;BME280;74260;50.772;7.730;2023-12-29T01:02:58;98388.59;;;9.00;83.70
84143;BME280;74260;50.772;7.730;2023-12-29T01:03:30;98395.13;;;8.96;83.47
84143;BME280;74260;50.772;7.730;2023-12-29T01:04:01;98397.44;;;9.03;83.20
84143;BME280;74260;50.772;7.730;2023-12-29T01:04:32;98401.56;;;9.01;83.62
84143;BME280;74260;50.772;7.730;2023-12-29T01:05:02;98394.75;;;9.02;83.39
84143;BME280;74260;50.772;7.730;2023-12-29T01:05:33;98387.41;;;9.06;83.25
84143;BME280;74260;50.772;7.730;2023-12-29T01:06:03;98390.13;;;8.98;83.67
84143;BME280;74260;50.772;7.730;2023-12-29T01:06:34;98393.59;;;8.98;83.75
84143;BME280;74260;50.772;7.730;2023-12-29T01:07:04;98390.63;;;8.94;83.56
84143;BME280;74260;50.772;7.730;2023-12-29T01:07:35;98394.22;;;8.96;83.67
84143;BME280;74260;50.772;7.730;2023-12-29T01:08:05;98392.44;;;8.95;83.87
84143;BME280;74260;50.772;7.730;2023-12-29T01:08:36;98397.69;;;8.96;83.52
84143;BME280;74260;50.772;7.730;2023-12-29T01:09:06;98396.03;;;8.97;83.63
84143;BME280;74260;50.772;7.730;2023-12-29T01:09:39;98391.03;;;8.98;83.36
84143;BME280;74260;50.772;7.730;2023-12-29T01:10:10;98384.59;;;8.93;83.87
84143;BME280;74260;50.772;7.730;2023-12-29T01:10:40;98387.19;;;8.93;83.71
84143;BME280;74260;50.772;7.730;2023-12-29T01:11:11;98383.06;;;8.95;83.44
84143;BME280;74260;50.772;7.730;2023-12-29T01:11:43;98384.84;;;8.96;83.87
84143;BME280;74260;50.772;7.730;2023-12-29T01:12:14;98388.22;;;8.95;83.60
84143;BME280;74260;50.772;7.730;2023-12-29T01:12:45;98374.31;;;8.93;83.60
84143;BME280;74260;50.772;7.730;2023-12-29T01:13:15;98379.97;;;8.99;83.62
84143;BME280;74260;50.772;7.730;2023-12-29T01:13:46;98382.91;;;8.94;83.69
84143;BME280;74260;50.772;7.730;2023-12-29T01:14:16;98386.38;;;8.94;84.07
84143;BME280;74260;50.772;7.730;2023-12-29T01:14:46;98382.53;;;8.89;84.00
84143;BME280;74260;50.772;7.730;2023-12-29T01:15:17;98387.69;;;8.89;84.29
84143;BME280;74260;50.772;7.730;2023-12-29T01:15:47;98380.22;;;8.92;83.74
84143;BME280;74260;50.772;7.730;2023-12-29T01:16:18;98377.28;;;8.88;84.08
84143;BME280;74260;50.772;7.730;2023-12-29T01:16:48;98377.41;;;8.89;84.19
84143;BME280;74260;50.772;7.730;2023-12-29T01:17:19;98379.84;;;8.88;83.98
84143;BME280;74260;50.772;7.730;2023-12-29T01:17:52;98374.84;;;8.89;84.34
84143;BME280;74260;50.772;7.730;2023-12-29T01:18:22;98377.03;;;8.95;84.25
84143;BME280;74260;50.772;7.730;2023-12-29T01:18:53;98378.19;;;8.88;84.42
84143;BME280;74260;50.772;7.730;2023-12-29T01:19:24;98368.03;;;8.90;84.11
84143;BME280;74260;50.772;7.730;2023-12-29T01:19:54;98361.72;;;8.96;84.28
84143;BME280;74260;50.772;7.730;2023-12-29T01:20:24;98369.94;;;8.92;84.09
84143;BME280;74260;50.772;7.730;2023-12-29T01:20:55;98374.09;;;8.90;84.22
84143;BME280;74260;50.772;7.730;2023-12-29T01:21:25;98372.78;;;8.95;84.16
84143;BME280;74260;50.772;7.730;2023-12-29T01:21:56;98375.09;;;9.02;83.31
84143;BME280;74260;50.772;7.730;2023-12-29T01:22:27;98368.94;;;9.00;84.03
84143;BME280;74260;50.772;7.730;2023-12-29T01:22:58;98368.13;;;9.01;83.65
84143;BME280;74260;50.772;7.730;2023-12-29T01:23:28;98361.84;;;8.98;83.55
84143;BME280;74260;50.772;7.730;2023-12-29T01:24:00;98371.75;;;8.93;83.78
84143;BME280;74260;50.772;7.730;2023-12-29T01:24:31;98368.28;;;8.93;84.48
84143;BME280;74260;50.772;7.730;2023-12-29T01:25:01;98371.38;;;8.99;83.69
84143;BME280;74260;50.772;7.730;2023-12-29T01:25:32;98370.34;;;8.97;84.37
84143;BME280;74260;50.772;7.730;2023-12-29T01:26:02;98374.31;;;8.93;84.40
84143;BME280;74260;50.772;7.730;2023-12-29T01:26:39;98375.72;;;9.00;83.84
84143;BME280;74260;50.772;7.730;2023-12-29T01:27:09;98367.66;;;8.95;83.96
84143;BME280;74260;50.772;7.730;2023-12-29T01:27:39;98371.22;;;8.97;84.20
84143;BME280;74260;50.772;7.730;2023-12-29T01:28:10;98369.19;;;8.93;83.90
84143;BME280;74260;50.772;7.730;2023-12-29T01:28:40;98369.31;;;8.95;84.10
84143;BME280;74260;50.772;7.730;2023-12-29T01:29:11;98368.13;;;9.01;84.27
84143;BME280;74260;50.772;7.730;2023-12-29T01:29:41;98361.09;;;8.99;84.06
84143;BME280;74260;50.772;7.730;2023-12-29T01:30:11;98364.16;;;8.95;84.46
84143;BME280;74260;50.772;7.730;2023-12-29T01:30:42;98359.16;;;8.96;84.25
84143;BME280;74260;50.772;7.730;2023-12-29T01:31:12;98366.72;;;9.05;83.66
84143;BME280;74260;50.772;7.730;2023-12-29T01:31:43;98367.75;;;9.07;83.68
84143;BME280;74260;50.772;7.730;2023-12-29T01:32:14;98365.69;;;9.03;84.02
84143;BME280;74260;50.772;7.730;2023-12-29T01:32:44;98361.97;;;8.99;84.09
84143;BME280;74260;50.772;7.730;2023-12-29T01:33:14;98360.19;;;8.98;84.15
84143;BME280;74260;50.772;7.730;2023-12-29T01:33:45;98363.00;;;9.01;83.33
84143;BME280;74260;50.772;7.730;2023-12-29T01:34:15;98369.16;;;9.03;83.77
84143;BME280;74260;50.772;7.730;2023-12-29T01:34:45;98359.41;;;8.99;83.82
84143;BME280;74260;50.772;7.730;2023-12-29T01:35:17;98363.66;;;8.99;84.21
84143;BME280;74260;50.772;7.730;2023-12-29T01:35:47;98354.41;;;8.91;84.12
84143;BME280;74260;50.772;7.730;2023-12-29T01:36:18;98367.78;;;8.97;83.77
84143;BME280;74260;50.772;7.730;2023-12-29T01:36:51;98354.13;;;9.08;83.71
84143;BME280;74260;50.772;7.730;2023-12-29T01:37:21;98357.97;;;9.03;83.82
84143;BME280;74260;50.772;7.730;2023-12-29T01:37:52;98357.63;;;8.98;84.03
84143;BME280;74260;50.772;7.730;2023-12-29T01:38:25;98355.16;;;9.00;83.95
84143;BME280;74260;50.772;7.730;2023-12-29T01:38:55;98351.81;;;9.01;84.05
84143;BME280;74260;50.772;7.730;2023-12-29T01:39:26;98351.19;;;9.03;83.66
84143;BME280;74260;50.772;7.730;2023-12-29T01:39:56;98350.66;;;8.97;83.73
84143;BME280;74260;50.772;7.730;2023-12-29T01:40:27;98342.19;;;8.98;83.95
84143;BME280;74260;50.772;7.730;2023-12-29T01:40:57;98349.13;;;8.99;83.50
84143;BME280;74260;50.772;7.730;2023-12-29T01:41:29;98355.81;;;8.97;83.53
84143;BME280;74260;50.772;7.730;2023-12-29T01:41:59;98361.84;;;8.98;84.03
84143;BME280;74260;50.772;7.730;2023-12-29T01:42:31;98347.34;;;8.98;83.63
84143;BME280;74260;50.772;7.730;2023-12-29T01:43:01;98355.81;;;8.97;83.54
84143;BME280;74260;50.772;7.730;2023-12-29T01:43:31;98351.19;;;8.93;84.10
84143;BME280;74260;50.772;7.730;2023-12-29T01:44:32;98350.16;;;8.91;84.04
84143;BME280;74260;50.772;7.730;2023-12-29T01:45:03;98350.69;;;8.87;84.56
84143;BME280;74260;50.772;7.730;2023-12-29T01:45:34;98351.72;;;8.89;84.19
84143;BME280;74260;50.772;7.730;2023-12-29T01:46:04;98350.94;;;8.90;83.82
84143;BME280;74260;50.772;7.730;2023-12-29T01:46:34;98354.25;;;8.99;83.81
84143;BME280;74260;50.772;7.730;2023-12-29T01:47:12;98355.03;;;8.98;83.68
84143;BME280;74260;50.772;7.730;2023-12-29T01:47:43;98343.22;;;9.00;83.33
84143;BME280;74260;50.772;7.730;2023-12-29T01:48:14;98352.22;;;8.95;84.17
84143;BME280;74260;50.772;7.730;2023-12-29T01:48:44;98346.44;;;8.98;83.89
84143;BME280;74260;50.772;7.730;2023-12-29T01:49:15;98343.50;;;8.93;84.21
84143;BME280;74260;50.772;7.730;2023-12-29T01:49:48;98351.19;;;8.93;84.02
84143;BME280;74260;50.772;7.730;2023-12-29T01:50:21;98346.94;;;8.94;84.23
84143;BME280;74260;50.772;7.730;2023-12-29T01:50:52;98343.63;;;8.95;83.92
84143;BME280;74260;50.772;7.730;2023-12-29T01:51:24;98344.66;;;8.97;83.96
84143;BME280;74260;50.772;7.730;2023-12-29T01:51:57;98347.34;;;8.98;83.79
84143;BME280;74260;50.772;7.730;2023-12-29T01:52:28;98350.94;;;9.00;83.77
84143;BME280;74260;50.772;7.730;2023-12-29T01:52:59;98343.47;;;9.03;83.44
84143;BME280;74260;50.772;7.730;2023-12-29T01:53:30;98341.41;;;8.99;83.57
84143;BME280;74260;50.772;7.730;2023-12-29T01:54:01;98360.03;;;9.07;83.40
84143;BME280;74260;50.772;7.730;2023-12-29T01:54:34;98347.81;;;9.04;83.61
84143;BME280;74260;50.772;7.730;2023-12-29T01:55:06;98351.81;;;9.01;83.78
84143;BME280;74260;50.772;7.730;2023-12-29T01:55:42;98348.25;;;8.99;84.17
84143;BME280;74260;50.772;7.730;2023-12-29T01:56:13;98338.84;;;8.99;84.24
84143;BME280;74260;50.772;7.730;2023-12-29T01:56:44;98346.56;;;8.99;83.92
84143;BME280;74260;50.772;7.730;2023-12-29T01:57:15;98349.66;;;8.95;84.00
84143;BME280;74260;50.772;7.730;2023-12-29T01:57:46;98343.09;;;8.99;84.15
84143;BME280;74260;50.772;7.730;2023-12-29T01:58:17;98339.38;;;8.95;84.17
84143;BME280;74260;50.772;7.730;2023-12-29T01:58:49;98343.72;;;8.96;84.18
84143;BME280;74260;50.772;7.730;2023-12-29T01:59:19;98347.84;;;8.94;84.44
84143;BME280;74260;50.772;7.730;2023-12-29T01:59:50;98345.53;;;8.97;84.31
84143;BME280;74260;50.772;7.730;2023-12-29T02:00:20;98339.50;;;8.97;83.81
84143;BME280;74260;50.772;7.730;2023-12-29T02:00:51;98348.63;;;8.93;84.53
84143;BME280;74260;50.772;7.730;2023-12-29T02:01:21;98347.09;;;8.95;84.38
84143;BME280;74260;50.772;7.730;2023-12-29T02:01:53;98347.97;;;8.96;84.19
84143;BME280;74260;50.772;7.730;2023-12-29T02:02:25;98351.19;;;9.03;83.58
84143;BME280;74260;50.772;7.730;2023-12-29T02:02:56;98352.34;;;9.07;84.08
84143;BME280;74260;50.772;7.730;2023-12-29T02:03:27;98346.94;;;9.04;83.71
84143;BME280;74260;50.772;7.730;2023-12-29T02:03:59;98350.66;;;8.97;84.48
84143;BME280;74260;50.772;7.730;2023-12-29T02:04:30;98343.34;;;9.02;83.87
84143;BME280;74260;50.772;7.730;2023-12-29T02:05:02;98347.22;;;8.97;83.73
84143;BME280;74260;50.772;7.730;2023-12-29T02:05:36;98343.97;;;8.99;84.12
84143;BME280;74260;50.772;7.730;2023-12-29T02:06:08;98348.88;;;8.96;84.54
84143;BME280;74260;50.772;7.730;2023-12-29T02:06:39;98347.34;;;8.98;84.10
84143;BME280;74260;50.772;7.730;2023-12-29T02:07:10;98349.00;;;8.98;84.64
84143;BME280;74260;50.772;7.730;2023-12-29T02:07:41;98354.78;;;9.05;83.92
84143;BME280;74260;50.772;7.730;2023-12-29T02:08:11;98351.19;;;9.03;84.08
84143;BME280;74260;50.772;7.730;2023-12-29T02:08:41;98345.28;;;8.94;84.79
84143;BME280;74260;50.772;7.730;2023-12-29T02:09:12;98343.63;;;8.95;84.52
84143;BME280;74260;50.772;7.730;2023-12-29T02:09:44;98346.06;;;8.93;84.42
84143;BME280;74260;50.772;7.730;2023-12-29T02:10:14;98350.66;;;8.97;84.58
84143;BME280;74260;50.772;7.730;2023-12-29T02:10:46;98351.97;;;9.02;83.84
84143;BME280;74260;50.772;7.730;2023-12-29T02:11:21;98356.19;;;9.12;83.25
84143;BME280;74260;50.772;7.730;2023-12-29T02:11:52;98346.81;;;9.12;83.38
84143;BME280;74260;50.772;7.730;2023-12-29T02:12:22;98349.66;;;9.05;83.88
84143;BME280;74260;50.772;7.730;2023-12-29T02:12:53;98350.41;;;9.04;83.82
84143;BME280;74260;50.772;7.730;2023-12-29T02:13:27;98342.44;;;9.01;83.96
84143;BME280;74260;50.772;7.730;2023-12-29T02:13:59;98350.56;;;9.06;83.71
84143;BME280;74260;50.772;7.730;2023-12-29T02:14:30;98351.94;;;9.12;83.08
84143;BME280;74260;50.772;7.730;2023-12-29T02:15:03;98343.06;;;9.19;82.61
84143;BME280;74260;50.772;7.730;2023-12-29T02:15:34;98347.81;;;9.24;82.49
84143;BME280;74260;50.772;7.730;2023-12-29T02:16:15;98348.06;;;9.17;83.24
84143;BME280;74260;50.772;7.730;2023-12-29T02:17:34;98349.97;;;9.20;82.83
84143;BME280;74260;50.772;7.730;2023-12-29T02:17:47;98346.66;;;9.21;82.89
84143;BME280;74260;50.772;7.730;2023-12-29T02:18:22;98344.59;;;9.17;83.08
84143;BME280;74260;50.772;7.730;2023-12-29T02:18:53;98351.16;;;9.13;83.07
84143;BME280;74260;50.772;7.730;2023-12-29T02:19:37;98356.53;;;9.16;83.07
84143;BME280;74260;50.772;7.730;2023-12-29T02:20:11;98349.97;;;9.20;82.80
84143;BME280;74260;50.772;7.730;2023-12-29T02:20:42;98353.97;;;9.16;83.12
84143;BME280;74260;50.772;7.730;2023-12-29T02:21:13;98355.41;;;9.13;83.33
84143;BME280;74260;50.772;7.730;2023-12-29T02:21:43;98355.94;;;9.09;83.69
84143;BME280;74260;50.772;7.730;2023-12-29T02:22:14;98360.03;;;9.17;83.25
84143;BME280;74260;50.772;7.730;2023-12-29T02:22:44;98356.53;;;9.16;83.10
84143;BME280;74260;50.772;7.730;2023-12-29T02:23:14;98359.13;;;9.16;83.35
84143;BME280;74260;50.772;7.730;2023-12-29T02:23:45;98360.41;;;9.11;83.63
84143;BME280;74260;50.772;7.730;2023-12-29T02:24:15;98353.81;;;9.25;82.56
84143;BME280;74260;50.772;7.730;2023-12-29T02:24:49;98359.13;;;9.26;82.46
84143;BME280;74260;50.772;7.730;2023-12-29T02:25:19;98365.69;;;9.23;82.85
84143;BME280;74260;50.772;7.730;2023-12-29T02:25:51;98356.03;;;9.20;82.94
84143;BME280;74260;50.772;7.730;2023-12-29T02:26:29;98358.34;;;9.17;83.27
84143;BME280;74260;50.772;7.730;2023-12-29T02:27:57;98360.50;;;9.33;81.98
84143;BME280;74260;50.772;7.730;2023-12-29T02:28:30;98352.91;;;9.34;81.57
84143;BME280;74260;50.772;7.730;2023-12-29T02:29:04;98357.28;;;9.35;81.62
84143;BME280;74260;50.772;7.730;2023-12-29T02:29:38;98348.56;;;9.33;82.12
84143;BME280;74260;50.772;7.730;2023-12-29T02:31:01;98351.91;;;9.32;82.19
84143;BME280;74260;50.772;7.730;2023-12-29T02:31:38;98344.06;;;9.31;82.61
84143;BME280;74260;50.772;7.730;2023-12-29T02:32:13;98343.41;;;9.33;82.00
84143;BME280;74260;50.772;7.730;2023-12-29T02:32:46;98343.66;;;9.37;81.71
84143;BME280;74260;50.772;7.730;2023-12-29T02:33:20;98350.34;;;9.34;81.98
84143;BME280;74260;50.772;7.730;2023-12-29T02:33:52;98337.97;;;9.41;81.07
84143;BME280;74260;50.772;7.730;2023-12-29T02:34:23;98330.78;;;9.47;80.89
84143;BME280;74260;50.772;7.730;2023-12-29T02:34:55;98341.56;;;9.43;81.34
84143;BME280;74260;50.772;7.730;2023-12-29T02:35:28;98342.84;;;9.48;81.23
84143;BME280;74260;50.772;7.730;2023-12-29T02:35:59;98332.56;;;9.48;81.16
84143;BME280;74260;50.772;7.730;2023-12-29T02:36:32;98330.53;;;9.44;81.08
84143;BME280;74260;50.772;7.730;2023-12-29T02:37:04;98332.06;;;9.42;81.26
84143;BME280;74260;50.772;7.730;2023-12-29T02:37:36;98341.34;;;9.40;81.48
84143;BME280;74260;50.772;7.730;2023-12-29T02:38:07;98321.28;;;9.35;81.24
84143;BME280;74260;50.772;7.730;2023-12-29T02:38:39;98321.53;;;9.39;81.31
84143;BME280;74260;50.772;7.730;2023-12-29T02:39:10;98329.78;;;9.34;81.39
84143;BME280;74260;50.772;7.730;2023-12-29T02:39:41;98333.84;;;9.43;81.10
84143;BME280;74260;50.772;7.730;2023-12-29T02:40:12;98332.97;;;9.42;80.96
84143;BME280;74260;50.772;7.730;2023-12-29T02:40:44;98324.84;;;9.48;81.11
84143;BME280;74260;50.772;7.730;2023-12-29T02:41:16;98329.47;;;9.52;80.62
84143;BME280;74260;50.772;7.730;2023-12-29T02:41:48;98320.72;;;9.50;80.86
84143;BME280;74260;50.772;7.730;2023-12-29T02:42:18;98319.81;;;9.49;80.81
84143;BME280;74260;50.772;7.730;2023-12-29T02:42:49;98315.22;;;9.45;81.08
84143;BME280;74260;50.772;7.730;2023-12-29T02:43:19;98313.78;;;9.49;80.71
84143;BME280;74260;50.772;7.730;2023-12-29T02:43:49;98316.88;;;9.45;80.96
84143;BME280;74260;50.772;7.730;2023-12-29T02:44:20;98309.94;;;9.44;81.13
84143;BME280;74260;50.772;7.730;2023-12-29T02:44:50;98316.88;;;9.45;80.98
84143;BME280;74260;50.772;7.730;2023-12-29T02:45:20;98302.59;;;9.48;81.14
84143;BME280;74260;50.772;7.730;2023-12-29T02:45:51;98318.16;;;9.50;80.59
84143;BME280;74260;50.772;7.730;2023-12-29T02:46:21;98319.16;;;9.52;80.71
84143;BME280;74260;50.772;7.730;2023-12-29T02:46:52;98315.56;;;9.50;80.84
84143;BME280;74260;50.772;7.730;2023-12-29T02:47:22;98295.22;;;9.53;80.74
84143;BME280;74260;50.772;7.730;2023-12-29T02:47:53;98310.66;;;9.53;80.01
84143;BME280;74260;50.772;7.730;2023-12-29T02:48:25;98311.56;;;9.53;80.52
84143;BME280;74260;50.772;7.730;2023-12-29T02:48:55;98314.53;;;9.58;80.32
84143;BME280;74260;50.772;7.730;2023-12-29T02:49:26;98308.06;;;9.63;79.76
84143;BME280;74260;50.772;7.730;2023-12-29T02:49:58;98310.75;;;9.64;80.08
84143;BME280;74260;50.772;7.730;2023-12-29T02:50:29;98302.66;;;9.60;80.02